Cebollita Spring, Valles Caldera, New Mexico Weather observations

Data are for 10 minute period ending at time listed.
 Day   Time   Solar   Ave.   Ave.  Ave.  Vector  Max.   Baro.   Total    
  of    of     Rad.   Air    Rel.  Wind   Wind   Wind  Press.  Precip.   
Year   Day            Temp.  Hum.  Speed  Dir.   Gust                    
2017   (MST)  Kw/m2    F      %     mph   deg.    mph    mb.     in.     
-------------------------------------------------------------------------
 114    7:30   0.23   47.7    38    5.3   236    10.8   99999.0    0.00 
 114    7:40   0.31   49.6    32    5.3   238    11.9   99999.0    0.00 
 114    7:50   0.35   50.8    28    6.3   239    14.3   99999.0    0.00 
 114    8:00   0.39   51.2    27    8.1   235    14.9   99999.0    0.00 
 114    8:10   0.41   52.3    27    6.2   223    14.3   99999.0    0.00 
 114    8:20   0.44   52.8    25    6.5   216    16.7   99999.0    0.00 
 114    8:30   0.45   52.8    25    8.8   236    19.1   99999.0    0.00 
 114    8:40   0.49   53.7    25    7.9   239    15.5   99999.0    0.00 
 114    8:50   0.53   54.5    24    8.1   245    17.3   99999.0    0.00 
 114    9:00   0.57   54.8    23    9.6   242    18.5   99999.0    0.00 
 114    9:10   0.54   54.6    23   10.3   227    18.5   99999.0    0.00 
 114    9:20   0.43   54.0    23   10.0   231    17.9   99999.0    0.00 
 114    9:30   0.51   54.6    24    9.5   242    17.9   99999.0    0.00 
 114    9:40   0.56   54.9    23    9.8   244    19.7   99999.0    0.00 
 114    9:50   0.50   55.7    23   10.4   239    20.3   99999.0    0.00 
 114   10:00   0.53   55.7    24    7.3   242    18.5   99999.0    0.00 
 114   10:10   0.64   56.4    22    9.7   250    20.3   99999.0    0.00 
 114   10:20   0.69   58.1    22    7.4   249    14.3   99999.0    0.00 
 114   10:30   0.71   59.3    20    7.4   229    14.9   99999.0    0.00 
 114   10:40   0.73   58.8    20   10.3   231    17.3   99999.0    0.00 
 114   10:50   0.74   59.7    20    7.0   223    13.1   99999.0    0.00 
 114   11:00   0.74   60.0    19    8.7   230    18.5   99999.0    0.00 
 114   11:10   0.78   59.8    18   10.3   225    24.5   99999.0    0.00 
 114   11:20   0.48   58.8    19   11.2   237    25.0   99999.0    0.00 
 114   11:30   0.55   59.0    20    8.1   240    16.1   99999.0    0.00 
 114   11:40   0.54   60.1    19    9.9   256    21.5   99999.0    0.00 
 114   11:50   0.70   60.9    19    9.7   231    20.6   99999.0    0.00 
 114   12:00   0.69   60.5    19   10.5   228    25.6   99999.0    0.00 
 114   12:10   0.72   61.5    18   14.3   270    26.8   99999.0    0.00 
 114   12:20   0.51   60.6    18   12.6   250    23.3   99999.0    0.00 
 114   12:30   0.67   61.4    18    9.8   246    27.4   99999.0    0.00 
 114   12:40   0.46   60.6    18   12.5   252    22.1   99999.0    0.00 
 114   12:50   0.38   58.7    18   11.4   244    23.3   99999.0    0.00 
 114   13:00   0.54   60.8    17   12.0   255    23.9   99999.0    0.00 
 114   13:10   0.52   61.0    18   10.4   237    26.8   99999.0    0.00 
 114   13:20   0.76   62.2    18   11.2   246    25.0   99999.0    0.00 
 114   13:30   0.70   63.6    16    9.3   232    20.3   99999.0    0.00 
 114   13:40   0.50   62.7    16    9.4   224    20.3   99999.0    0.00 
 114   13:50   0.36   60.9    16   10.7   235    22.1   99999.0    0.00 
 114   14:00   0.29   60.5    15   10.8   243    20.3   99999.0    0.00 
 114   14:10   0.42   61.6    16   10.7   259    22.7   99999.0    0.00 
 114   14:20   0.44   61.9    16    9.6   250    19.1   99999.0    0.00 
 114   14:30   0.40   62.8    16   10.3   252    25.6   99999.0    0.00 
 114   14:40   0.28   61.5    17    9.6   255    18.5   99999.0    0.00 
 114   14:50   0.31   61.5    16   13.8   261    26.2   99999.0    0.00 
 114   15:00   0.26   60.8    17   11.7   252    21.5   99999.0    0.00 
 114   15:10   0.24   61.2    17   10.6   256    22.7   99999.0    0.00 
 114   15:20   0.18   60.9    17    9.7   261    19.7   99999.0    0.00 
 114   15:30   0.19   60.6    18    9.0   254    19.7   99999.0    0.00 
 114   15:40   0.15   60.5    16   10.0   246    23.3   99999.0    0.00 
 114   15:50   0.17   60.1    16   11.5   259    26.2   99999.0    0.00 
 114   16:00   0.15   59.8    16   12.6   255    26.8   99999.0    0.00 
 114   16:10   0.13   59.9    16   11.2   264    23.3   99999.0    0.00 
 114   16:20   0.12   59.6    17   11.3   258    22.7   99999.0    0.00 
 114   16:30   0.08   59.1    17   12.2   258    25.6   99999.0    0.00 
 114   16:40   0.08   58.8    17   10.3   263    19.7   99999.0    0.00 
 114   16:50   0.07   58.5    17   10.7   263    24.5   99999.0    0.00 
 114   17:00   0.07   58.3    17   11.6   264    23.9   99999.0    0.00 
 114   17:10   0.05   58.0    17    9.3   265    19.7   99999.0    0.00 
 114   17:20   0.03   57.5    18    8.3   261    16.1   99999.0    0.00 
 114   17:30   0.03   57.0    19    8.7   271    20.3   99999.0    0.00 
 114   17:40   0.05   56.8    20    7.7   266    15.8   99999.0    0.00 
 114   17:50   0.03   56.7    19    9.5   262    19.1   99999.0    0.00 
 114   18:00   0.02   56.2    20   10.6   269    20.3   99999.0    0.00 
 114   18:10   0.02   55.9    20    9.9   270    20.9   99999.0    0.00 
 114   18:20   0.03   55.8    20    8.2   269    17.9   99999.0    0.00 
 114   18:30   0.01   55.2    21    8.1   274    14.9   99999.0    0.00 
 114   18:40   0.00   54.8    22    8.2   270    15.5   99999.0    0.00 
 114   18:50   0.00   54.6    22    8.0   266    14.3   99999.0    0.00 
 114   19:00   0.00   54.4    23    7.8   264    14.9   99999.0    0.00 
 114   19:10   0.00   54.2    23    6.7   268    14.9   99999.0    0.00 
 114   19:20   0.00   54.4    22    9.0   267    17.9   99999.0    0.00 
 114   19:30   0.00   54.5    22    8.9   260    18.5   99999.0    0.00 
 114   19:40   0.00   54.5    22    9.3   251    16.1   99999.0    0.00 
 114   19:50   0.00   54.5    22   10.3   260    18.5   99999.0    0.00 
 114   20:00   0.00   54.1    23    8.9   272    22.7   99999.0    0.00 
 114   20:10   0.00   53.9    23   11.1   268    28.0   99999.0    0.00 
 114   20:20   0.00   53.5    24    8.2   262    20.3   99999.0    0.00 
 114   20:30   0.00   53.4    24    9.2   254    18.2   99999.0    0.00 
 114   20:40   0.00   53.0    25    9.1   268    19.7   99999.0    0.00 
 114   20:50   0.00   52.9    25   10.4   276    20.3   99999.0    0.00 
 114   21:00   0.00   52.7    26   11.1   270    29.2   99999.0    0.00 
 114   21:10   0.00   52.4    26    9.3   267    26.2   99999.0    0.00 
 114   21:20   0.00   52.1    27    8.1   252    15.5   99999.0    0.00 
 114   21:30   0.00   51.8    27   12.1   270    22.7   99999.0    0.00 
 114   21:40   0.00   51.3    28   11.7   262    24.5   99999.0    0.00 
 114   21:50   0.00   51.1    27   10.4   248    24.5   99999.0    0.00 
 114   22:00   0.00   50.9    27   11.9   251    33.4   99999.0    0.00 
 114   22:10   0.00   50.3    30   13.0   263    25.0   99999.0    0.00 
 114   22:20   0.00   49.4    32   11.0   268    26.8   99999.0    0.00 
 114   22:30   0.00   49.4    32    8.2   258    17.3   99999.0    0.00 
 114   22:40   0.00   48.8    35   11.1   258    24.5   99999.0    0.00 
 114   22:50   0.00   48.3    37   11.4   244    22.1   99999.0    0.00 
 114   23:00   0.00   48.4    35   11.1   245    21.5   99999.0    0.00 
 114   23:10   0.00   48.3    34   10.8   248    22.1   99999.0    0.00 
 114   23:20   0.00   47.8    36    9.0   251    22.7   99999.0    0.00 
 114   23:30   0.00   47.6    37    9.0   252    21.5   99999.0    0.00 
 114   23:40   0.00   47.6    35    9.4   249    23.9   99999.0    0.00 
 114   23:50   0.00   47.4    34    7.3   251    16.1   99999.0    0.00 
 115    0:00   0.00   47.8    32    9.8   252    19.7   99999.0    0.00 
 115    0:10   0.00   48.0    30    8.6   256    16.7   99999.0    0.00 
 115    0:20   0.00   48.1    28    7.3   247    16.7   99999.0    0.00 
 115    0:30   0.00   47.9    28    6.1   241    13.7   99999.0    0.00 
 115    0:40   0.00   47.5    28    4.7   240    10.2   99999.0    0.00 
 115    0:50   0.00   47.3    28    8.4   246    19.1   99999.0    0.00 
 115    1:00   0.00   47.4    28    9.0   245    19.7   99999.0    0.00 
 115    1:10   0.00   47.1    28   10.7   255    21.5   99999.0    0.00 
 115    1:20   0.00   46.7    29    9.5   254    17.9   99999.0    0.00 
 115    1:30   0.00   46.6    29   11.5   257    22.7   99999.0    0.00 
 115    1:40   0.00   46.6    29   11.7   254    25.6   99999.0    0.00 
 115    1:50   0.00   46.4    29    9.8   248    20.9   99999.0    0.00 
 115    2:00   0.00   46.2    29   10.7   251    20.9   99999.0    0.00 
 115    2:10   0.00   46.2    29   12.0   249    23.3   99999.0    0.00 
 115    2:20   0.00   46.1    30   11.6   252    22.1   99999.0    0.00 
 115    2:30   0.00   45.8    31    7.9   248    16.7   99999.0    0.00 
 115    2:40   0.00   45.8    31   10.0   266    22.7   99999.0    0.00 
 115    2:50   0.00   45.7    32    9.5   254    18.5   99999.0    0.00 
 115    3:00   0.00   45.6    32    8.4   257    19.1   99999.0    0.00 
 115    3:10   0.00   45.4    33    6.8   255    15.5   99999.0    0.00 
 115    3:20   0.00   45.3    33    8.6   266    16.7   99999.0    0.00 
 115    3:30   0.00   45.1    34    5.8   251    14.9   99999.0    0.00 
 115    3:40   0.00   44.9    35    6.6   259    13.7   99999.0    0.00 
 115    3:50   0.00   44.5    38    8.6   255    20.9   99999.0    0.00 
 115    4:00   0.00   44.1    40    8.8   257    19.7   99999.0    0.00 
 115    4:10   0.00   43.7    41    7.1   272    16.1   99999.0    0.00 
 115    4:20   0.00   43.7    42    6.9   248    15.5   99999.0    0.00 
 115    4:30   0.00   42.9    50    8.6   242    19.1   99999.0    0.00 
 115    4:40   0.00   42.1    53    9.4   253    18.5   99999.0    0.00 
 115    4:50   0.00   41.6    56    7.8   267    19.1   99999.0    0.00 
 115    5:00   0.00   41.3    56    7.1   255    13.1   99999.0    0.00 
 115    5:10   0.00   40.9    62    7.4   251    13.7   99999.0    0.00 
 115    5:20   0.00   39.6    70    6.8   267    11.9   99999.0    0.00 
 115    5:30   0.00   38.2    79    4.2   263    10.2   99999.0    0.00 
 115    5:40   0.00   37.5    82    3.9   247     9.6   99999.0    0.00 
 115    5:50   0.00   36.9    89    4.4   250     9.0   99999.0    0.00 
 115    6:00   0.00   36.1    96    5.0   255     9.6   99999.0    0.00 
 115    6:10   0.01   35.7   100    4.4   263    10.8   99999.0    0.00 
 115    6:20   0.01   35.3   100    3.7   244     9.0   99999.0    0.00 
 115    6:30   0.01   35.0   100    3.1   246     7.2   99999.0    0.00 
 115    6:40   0.02   35.1   100    0.9   278     4.2   99999.0    0.00 
 115    6:50   0.01   35.0   100    3.5   242     8.4   99999.0    0.00 
 115    7:00   0.02   34.9   100    4.3   252     7.8   99999.0    0.00 
 115    7:10   0.03   34.8   100    5.1   263    11.3   99999.0    0.00 
 115    7:20   0.04   34.6   100    4.4   260     9.0   99999.0    0.00 

Return to Cebollita Spring, Valles Caldera graphs page.


Western Regional Climate Center,wrcc@dri.edu